^^
Station Historical Data
Daily Summary for February 8, 2017 Units:  English    Metric   Both
« Previous Day
Next Day »
Daily Weekly Monthly Yearly Custom
  High: Low: Average:
Temperature: 56.2 °F 36.6 °F 43.5 °F
Dew Point: 48.1 °F 30.6 °F 37.5 °F
Humidity: 98% 56% 81%
Wind Speed: 5.0mph 0.0mph 0.7mph
Wind Gust: 13.0mph - -
Wind- - WSW
Pressure: 29.76 in 29.55 in -
Precipitation: 0.04 in    
Historical Graphs
 
 
Tabular Data for February 8, 2017
Time Temperature Dew Point Pressure Wind Wind Speed Wind Gust Humidity Rainfall Rate (Hourly) Conditions
00:00 37.4 °F 36.6 °F 29.63 in North 1.0 mph 5.0 mph 97% 0.00 in RA
00:10 37.4 °F 36.7 °F 29.62 in Calm   2.0 mph 97% 0.00 in CLR
00:20 37.5 °F 36.7 °F 29.62 in Calm   2.0 mph 97% 0.00 in CLR
00:30 37.6 °F 36.8 °F 29.61 in Calm   3.0 mph 97% 0.00 in CLR
00:40 37.6 °F 36.8 °F 29.60 in Calm   3.0 mph 97% 0.00 in CLR
00:50 37.7 °F 36.9 °F 29.60 in Calm   3.0 mph 97% 0.00 in CLR
01:00 37.8 °F 37.0 °F 29.59 in Calm   3.0 mph 97% 0.00 in CLR
01:10 37.9 °F 37.1 °F 29.59 in Calm   3.0 mph 97% 0.00 in CLR
01:20 37.9 °F 37.1 °F 29.59 in Calm   1.0 mph 97% 0.00 in CLR
01:30 37.9 °F 37.1 °F 29.59 in Calm   1.0 mph 97% 0.00 in CLR
01:40 37.9 °F 37.1 °F 29.59 in Calm   1.0 mph 97% 0.00 in CLR
01:50 37.9 °F 37.1 °F 29.59 in Calm   1.0 mph 97% 0.00 in CLR
02:00 37.9 °F 37.1 °F 29.59 in Calm   1.0 mph 97% 0.00 in CLR
02:10 37.9 °F 37.1 °F 29.58 in Calm   1.0 mph 97% 0.00 in CLR
02:20 37.9 °F 37.1 °F 29.58 in Calm   2.0 mph 97% 0.00 in CLR
02:30 37.9 °F 37.1 °F 29.58 in Calm     97% 0.00 in CLR
02:40 37.2 °F 36.4 °F 29.59 in West 1.0 mph 2.0 mph 97% 0.00 in CLR
02:50 36.7 °F 35.9 °F 29.59 in Calm   1.0 mph 97% 0.00 in CLR
03:00 36.6 °F 35.9 °F 29.59 in Calm   1.0 mph 97% 0.00 in CLR
03:10 36.7 °F 35.9 °F 29.58 in Calm     97% 0.01 in RA
03:20 36.8 °F 36.0 °F 29.58 in Calm     97% 0.00 in
03:30 36.9 °F 36.1 °F 29.57 in Calm     97% 0.01 in RA
03:40 37.1 °F 36.3 °F 29.56 in Calm     97% 0.01 in RA
03:50 37.6 °F 36.8 °F 29.55 in Calm   1.0 mph 97% 0.00 in
04:00 37.5 °F 36.8 °F 29.56 in Calm   1.0 mph 97% 0.01 in RA
04:10 37.4 °F 36.6 °F 29.56 in Calm   1.0 mph 97% 0.00 in -RA
04:20 37.4 °F 36.6 °F 29.56 in Calm     97% 0.00 in -RA
04:30 37.5 °F 36.8 °F 29.56 in Calm     97% 0.00 in -RA
04:40 37.7 °F 36.9 °F 29.56 in Calm   1.0 mph 97% 0.00 in -RA
04:50 37.6 °F 36.8 °F 29.56 in Calm     97% 0.00 in -RA
05:00 37.5 °F 36.7 °F 29.56 in Calm     97% 0.00 in -RA
05:10 37.4 °F 36.6 °F 29.55 in Calm     97% 0.00 in BKN
05:20 37.4 °F 36.6 °F 29.56 in Calm     97% 0.00 in BKN
05:30 37.4 °F 36.6 °F 29.56 in Calm     97% 0.00 in BKN
05:40 37.0 °F 36.2 °F 29.58 in Calm   3.0 mph 97% 0.00 in BKN
05:50 36.8 °F 36.0 °F 29.58 in Calm   2.0 mph 97% 0.00 in BKN
06:00 36.9 °F 36.1 °F 29.57 in Calm   1.0 mph 97% 0.00 in BKN
06:10 37.3 °F 36.6 °F 29.57 in Calm     97% 0.00 in OVC
06:20 37.3 °F 36.5 °F 29.58 in ENE 1.0 mph 2.0 mph 97% 0.00 in OVC
06:30 37.1 °F 36.4 °F 29.58 in Calm   1.0 mph 97% 0.00 in OVC
06:40 36.6 °F 35.8 °F 29.58 in Calm     97% 0.00 in OVC
06:50 36.8 °F 36.1 °F 29.58 in Calm     97% 0.00 in OVC
07:00 37.3 °F 36.5 °F 29.59 in Calm   1.0 mph 97% 0.00 in OVC
07:10 38.1 °F 37.5 °F 29.59 in Calm   1.0 mph 98% 0.00 in OVC
07:20 39.8 °F 39.3 °F 29.59 in Calm   4.0 mph 98% 0.00 in OVC
07:30 40.3 °F 39.8 °F 29.59 in Calm   1.0 mph 98% 0.00 in OVC
07:40 40.4 °F 39.9 °F 29.59 in Calm     98% 0.00 in OVC
07:50 40.4 °F 39.9 °F 29.59 in Calm     98% 0.00 in OVC
08:00 39.5 °F 39.0 °F 29.60 in Calm     98% 0.00 in OVC
08:10 39.8 °F 39.2 °F 29.61 in Calm     98% 0.00 in SCT
08:20 38.5 °F 38.0 °F 29.61 in Calm   1.0 mph 98% 0.00 in SCT
08:30 38.4 °F 37.9 °F 29.61 in Calm   1.0 mph 98% 0.00 in SCT
08:40 39.8 °F 39.3 °F 29.62 in SW 1.0 mph 2.0 mph 98% 0.00 in SCT
08:50 40.2 °F 39.7 °F 29.62 in SW 1.0 mph 3.0 mph 98% 0.00 in SCT
09:00 40.1 °F 39.6 °F 29.63 in SW 1.0 mph 3.0 mph 98% 0.00 in SCT
09:10 39.7 °F 39.2 °F 29.64 in SW 1.0 mph 2.0 mph 98% 0.00 in FEW
09:20 39.8 °F 39.3 °F 29.64 in Calm   2.0 mph 98% 0.00 in FEW
09:30 40.6 °F 40.0 °F 29.64 in Calm   2.0 mph 98% 0.00 in FEW
09:50 43.7 °F 43.2 °F 29.66 in Calm   5.0 mph 98% 0.00 in FEW
10:00 43.6 °F 43.1 °F 29.67 in SSW 1.0 mph 4.0 mph 98% 0.00 in FEW
10:10 43.7 °F 43.2 °F 29.67 in Calm   5.0 mph 98% 0.00 in SCT
10:20 44.1 °F 43.6 °F 29.68 in SSW 1.0 mph 6.0 mph 98% 0.00 in SCT
10:30 44.5 °F 43.7 °F 29.68 in SSW 1.0 mph 7.0 mph 97% 0.00 in SCT
10:40 45.1 °F 44.3 °F 29.69 in SW 2.0 mph 5.0 mph 97% 0.00 in SCT
10:50 45.2 °F 44.4 °F 29.68 in Calm   4.0 mph 97% 0.00 in SCT
11:00 46.3 °F 45.5 °F 29.68 in Calm   2.0 mph 97% 0.00 in SCT
11:10 47.6 °F 46.8 °F 29.68 in Calm   2.0 mph 97% 0.00 in FEW
11:20 48.6 °F 47.5 °F 29.68 in North 2.0 mph 5.0 mph 96% 0.00 in FEW
11:30 49.7 °F 48.1 °F 29.68 in NW 1.0 mph 5.0 mph 94% 0.00 in FEW
11:40 50.4 °F 47.6 °F 29.68 in NNW 2.0 mph 8.0 mph 90% 0.00 in FEW
11:50 51.0 °F 47.0 °F 29.69 in North 1.0 mph 4.0 mph 86% 0.00 in FEW
12:00 52.2 °F 46.8 °F 29.68 in North 2.0 mph 8.0 mph 82% 0.00 in FEW
12:10 53.5 °F 47.1 °F 29.68 in North 1.0 mph 5.0 mph 79% 0.00 in FEW
12:20 53.9 °F 46.2 °F 29.68 in NNE 1.0 mph 7.0 mph 75% 0.00 in FEW
12:30 54.5 °F 45.7 °F 29.68 in NW 2.0 mph 5.0 mph 72% 0.00 in FEW
12:40 54.1 °F 44.5 °F 29.68 in NNW 3.0 mph 6.0 mph 70% 0.00 in FEW
12:50 54.4 °F 44.8 °F 29.67 in NNW 2.0 mph 6.0 mph 70% 0.00 in FEW
13:00 55.0 °F 44.6 °F 29.67 in NNW 1.0 mph 6.0 mph 68% 0.00 in FEW
13:10 55.6 °F 44.4 °F 29.67 in West 2.0 mph 5.0 mph 66% 0.00 in FEW
13:20 55.5 °F 43.6 °F 29.67 in WNW 2.0 mph 5.0 mph 64% 0.00 in FEW
13:30 55.1 °F 43.9 °F 29.67 in NNW 1.0 mph 5.0 mph 66% 0.00 in FEW
13:40 56.2 °F 43.7 °F 29.68 in NW 1.0 mph 7.0 mph 63% 0.00 in FEW
13:50 56.0 °F 43.1 °F 29.68 in North 2.0 mph 8.0 mph 62% 0.00 in FEW
14:00 55.9 °F 42.7 °F 29.68 in North 2.0 mph 10.0 mph 61% 0.00 in FEW
14:10 56.0 °F 42.7 °F 29.68 in NW 1.0 mph 10.0 mph 61% 0.00 in FEW
14:20 56.0 °F 41.8 °F 29.68 in NNW 3.0 mph 10.0 mph 59% 0.00 in FEW
14:30 55.8 °F 41.7 °F 29.68 in NW 3.0 mph 10.0 mph 59% 0.00 in FEW
14:40 54.9 °F 40.8 °F 29.68 in NNW 2.0 mph 8.0 mph 59% 0.00 in FEW
14:50 55.3 °F 40.3 °F 29.68 in NNW 2.0 mph 12.0 mph 57% 0.00 in FEW
15:00 54.5 °F 40.0 °F 29.69 in NNW 1.0 mph 12.0 mph 58% 0.00 in FEW
15:10 54.6 °F 39.7 °F 29.69 in NNE 2.0 mph 10.0 mph 57% 0.00 in FEW
15:20 54.4 °F 39.1 °F 29.69 in NNW 3.0 mph 10.0 mph 56% 0.00 in FEW
15:30 53.7 °F 38.9 °F 29.69 in NNW 3.0 mph 12.0 mph 57% 0.00 in FEW
15:40 53.0 °F 38.6 °F 29.70 in NNW 5.0 mph 12.0 mph 58% 0.00 in FEW
15:50 52.3 °F 37.9 °F 29.70 in NNW 3.0 mph 10.0 mph 58% 0.00 in FEW
16:00 51.5 °F 37.6 °F 29.71 in North 2.0 mph 12.0 mph 59% 0.00 in FEW
16:10 51.1 °F 37.3 °F 29.71 in NNW 5.0 mph 13.0 mph 59% 0.00 in FEW
16:20 50.4 °F 37.1 °F 29.71 in NNW 3.0 mph 13.0 mph 60% 0.00 in FEW
16:30 50.1 °F 37.2 °F 29.72 in NNW 3.0 mph 8.0 mph 61% 0.00 in FEW
16:40 49.9 °F 37.0 °F 29.73 in North 2.0 mph 10.0 mph 61% 0.00 in FEW
16:50 49.3 °F 36.4 °F 29.72 in North 2.0 mph 7.0 mph 61% 0.00 in FEW
17:00 49.0 °F 36.1 °F 29.73 in North 2.0 mph 7.0 mph 61% 0.00 in FEW
17:10 48.8 °F 35.5 °F 29.73 in Calm   9.0 mph 60% 0.00 in FEW
17:20 48.1 °F 34.4 °F 29.73 in NNW 2.0 mph 12.0 mph 59% 0.00 in FEW
17:30 47.3 °F 33.3 °F 29.72 in North 2.0 mph 6.0 mph 58% 0.00 in FEW
17:40 46.8 °F 33.2 °F 29.71 in NNE 2.0 mph 8.0 mph 59% 0.00 in FEW
17:50 46.3 °F 33.6 °F 29.72 in North 1.0 mph 6.0 mph 61% 0.00 in FEW
18:00 45.9 °F 33.6 °F 29.72 in Calm   5.0 mph 62% 0.00 in FEW
18:10 45.5 °F 34.0 °F 29.72 in NNW 1.0 mph 5.0 mph 64% 0.00 in CLR
18:20 45.2 °F 33.7 °F 29.73 in NNW 1.0 mph 2.0 mph 64% 0.00 in CLR
18:30 45.2 °F 33.7 °F 29.73 in Calm   5.0 mph 64% 0.00 in CLR
18:40 44.7 °F 33.6 °F 29.72 in Calm   3.0 mph 65% 0.00 in CLR
18:50 44.4 °F 33.4 °F 29.72 in NNW 1.0 mph 3.0 mph 65% 0.00 in CLR
19:00 44.8 °F 32.9 °F 29.73 in Calm   6.0 mph 63% 0.00 in CLR
19:10 45.1 °F 32.8 °F 29.73 in NNW 1.0 mph 5.0 mph 62% 0.00 in CLR
19:20 45.1 °F 32.8 °F 29.74 in Calm   4.0 mph 62% 0.00 in CLR
19:30 45.3 °F 33.1 °F 29.74 in Calm   4.0 mph 62% 0.00 in CLR
19:40 45.2 °F 33.3 °F 29.73 in Calm   5.0 mph 63% 0.00 in CLR
19:50 44.9 °F 33.1 °F 29.74 in NNW 1.0 mph 7.0 mph 63% 0.00 in CLR
20:00 44.7 °F 32.9 °F 29.74 in NNE 1.0 mph 6.0 mph 63% 0.00 in CLR
20:10 44.3 °F 32.9 °F 29.74 in Calm   7.0 mph 64% 0.00 in CLR
20:20 43.7 °F 33.1 °F 29.74 in Calm   4.0 mph 66% 0.00 in CLR
20:30 43.1 °F 33.3 °F 29.74 in Calm   3.0 mph 68% 0.00 in CLR
20:40 42.9 °F 32.7 °F 29.75 in Calm   6.0 mph 67% 0.00 in CLR
20:50 42.5 °F 32.7 °F 29.75 in Calm   4.0 mph 68% 0.00 in CLR
21:00 42.3 °F 32.5 °F 29.75 in Calm   6.0 mph 68% 0.00 in CLR
21:10 42.1 °F 32.7 °F 29.76 in NNE 1.0 mph 4.0 mph 69% 0.00 in CLR
21:20 41.7 °F 32.3 °F 29.75 in Calm   3.0 mph 69% 0.00 in CLR
21:30 41.1 °F 32.1 °F 29.75 in North 1.0 mph 4.0 mph 70% 0.00 in CLR
21:40 40.9 °F 31.9 °F 29.75 in NNE 1.0 mph 4.0 mph 70% 0.00 in CLR
21:50 40.8 °F 31.7 °F 29.74 in North 1.0 mph 5.0 mph 70% 0.00 in CLR
22:00 40.4 °F 31.3 °F 29.75 in Calm   2.0 mph 70% 0.00 in CLR
22:10 39.9 °F 31.3 °F 29.74 in Calm   2.0 mph 71% 0.00 in CLR
22:20 39.2 °F 31.3 °F 29.73 in Calm   1.0 mph 73% 0.00 in CLR
22:30 38.6 °F 31.0 °F 29.73 in Calm     74% 0.00 in CLR
22:40 38.2 °F 31.0 °F 29.74 in Calm   1.0 mph 75% 0.00 in CLR
22:50 38.3 °F 31.1 °F 29.73 in Calm   2.0 mph 75% 0.00 in CLR
23:00 37.9 °F 30.7 °F 29.73 in Calm   1.0 mph 75% 0.00 in CLR
23:10 37.8 °F 30.6 °F 29.73 in Calm   1.0 mph 75% 0.00 in FEW
23:20 38.0 °F 30.8 °F 29.74 in Calm   2.0 mph 75% 0.00 in FEW
23:30 38.1 °F 30.9 °F 29.73 in Calm   2.0 mph 75% 0.00 in FEW
23:40 38.1 °F 30.8 °F 29.73 in Calm   1.0 mph 75% 0.00 in FEW
23:50 38.1 °F 31.2 °F 29.73 in Calm   1.0 mph 76% 0.00 in FEW
TarryTown NY Weather
Compliments of Weather Underground - 1.75 mb